createdAt,value
2022-10-10T00:01:51.450Z,1014.6
2022-10-10T00:04:39.012Z,1014.5
2022-10-10T00:07:26.594Z,1014.5
2022-10-10T00:10:15.145Z,1014.5
2022-10-10T00:13:02.803Z,1014.5
2022-10-10T00:15:51.776Z,1014.5
2022-10-10T00:18:39.302Z,1014.4
2022-10-10T00:21:28.014Z,1014.5
2022-10-10T00:24:16.885Z,1014.4
2022-10-10T00:27:04.497Z,1014.4
2022-10-10T00:29:52.035Z,1014.4
2022-10-10T00:32:39.722Z,1014.4
2022-10-10T00:35:27.290Z,1014.4
2022-10-10T00:38:15.733Z,1014.3
2022-10-10T00:41:03.254Z,1014.3
2022-10-10T00:43:51.148Z,1014.3
2022-10-10T00:46:48.083Z,1014.2
2022-10-10T00:49:35.683Z,1014.2
2022-10-10T00:52:26.731Z,1014.2
2022-10-10T00:55:15.131Z,1014.3
2022-10-10T00:58:03.695Z,1014.2
2022-10-10T01:00:53.355Z,1014.3
2022-10-10T01:03:41.803Z,1014.2
2022-10-10T01:06:29.583Z,1014.1
2022-10-10T01:09:18.334Z,1014.1
2022-10-10T01:12:06.382Z,1014.1
2022-10-10T01:15:06.979Z,1014.1
2022-10-10T01:18:01.736Z,1014.2
2022-10-10T01:21:00.695Z,1014.1
2022-10-10T01:23:58.374Z,1014.1
2022-10-10T01:27:22.238Z,1014.2
2022-10-10T01:30:15.781Z,1014.1
2022-10-10T01:33:06.870Z,1014
2022-10-10T01:36:00.198Z,1014
2022-10-10T01:38:54.960Z,1013.9
2022-10-10T01:41:50.896Z,1013.9
2022-10-10T01:44:44.449Z,1013.8
2022-10-10T01:47:32.470Z,1013.9
2022-10-10T01:50:20.154Z,1013.8
2022-10-10T01:53:11.469Z,1013.8
2022-10-10T01:56:05.680Z,1013.7
2022-10-10T01:58:59.161Z,1013.7
2022-10-10T02:02:00.253Z,1013.7
2022-10-10T02:04:53.728Z,1013.7
2022-10-10T02:07:45.930Z,1013.7
2022-10-10T02:10:38.475Z,1013.7
2022-10-10T02:13:29.939Z,1013.7
2022-10-10T02:16:23.727Z,1013.6
2022-10-10T02:19:17.084Z,1013.6
2022-10-10T02:22:06.972Z,1013.6
2022-10-10T02:24:55.296Z,1013.6
2022-10-10T02:27:42.974Z,1013.5
2022-10-10T02:30:35.176Z,1013.5
2022-10-10T02:33:29.585Z,1013.5
2022-10-10T02:36:26.637Z,1013.4
2022-10-10T02:39:16.469Z,1013.3
2022-10-10T02:42:07.424Z,1013.4
2022-10-10T02:44:58.097Z,1013.3
2022-10-10T02:47:46.973Z,1013.3
2022-10-10T02:50:35.631Z,1013.3
2022-10-10T02:53:23.525Z,1013.2
2022-10-10T02:56:11.238Z,1013.3
2022-10-10T02:58:58.950Z,1013.3
2022-10-10T03:01:46.584Z,1013.3
2022-10-10T03:04:34.284Z,1013.3
2022-10-10T03:07:22.210Z,1013.2
2022-10-10T03:10:09.964Z,1013.2
2022-10-10T03:12:57.624Z,1013.1
2022-10-10T03:15:45.545Z,1013.1
2022-10-10T03:18:33.554Z,1013
2022-10-10T03:21:21.104Z,1013
2022-10-10T03:24:08.611Z,1013
2022-10-10T03:26:56.181Z,1012.9
2022-10-10T03:29:43.780Z,1012.8
2022-10-10T03:32:31.291Z,1012.7
2022-10-10T03:35:18.908Z,1012.8
2022-10-10T03:38:06.363Z,1012.8
2022-10-10T03:40:55.243Z,1012.7
2022-10-10T03:43:42.820Z,1012.7
2022-10-10T03:46:30.425Z,1012.6
2022-10-10T03:49:17.975Z,1012.6
2022-10-10T03:52:05.652Z,1012.6
2022-10-10T03:54:53.172Z,1012.6
2022-10-10T03:57:40.694Z,1012.6
2022-10-10T04:00:28.801Z,1012.5
2022-10-10T04:03:17.196Z,1012.6
2022-10-10T04:06:04.940Z,1012.5
2022-10-10T04:08:53.505Z,1012.5
2022-10-10T04:11:41.433Z,1012.6
2022-10-10T04:14:29.474Z,1012.6
2022-10-10T04:17:17.412Z,1012.6
2022-10-10T04:20:05.351Z,1012.5
2022-10-10T04:22:53.905Z,1012.6
2022-10-10T04:25:41.684Z,1012.6
2022-10-10T04:28:30.353Z,1012.6
2022-10-10T04:31:18.119Z,1012.5
2022-10-10T04:34:06.091Z,1012.4
2022-10-10T04:36:53.819Z,1012.4
2022-10-10T04:39:41.374Z,1012.3
2022-10-10T04:42:29.018Z,1012.3
2022-10-10T04:45:17.157Z,1012.4
2022-10-10T04:48:04.908Z,1012.3
2022-10-10T04:50:52.406Z,1012.3
2022-10-10T04:53:44.809Z,1012.2
2022-10-10T04:56:34.471Z,1012.1
2022-10-10T04:59:22.079Z,1012.1
2022-10-10T05:02:09.672Z,1012.1
2022-10-10T05:04:57.167Z,1012
2022-10-10T05:07:44.662Z,1012.1
2022-10-10T05:10:32.307Z,1012
2022-10-10T05:13:23.404Z,1011.9
2022-10-10T05:16:10.862Z,1011.8
2022-10-10T05:18:58.782Z,1011.9
2022-10-10T05:21:46.795Z,1011.8
2022-10-10T05:24:34.327Z,1011.8
2022-10-10T05:27:21.902Z,1011.9
2022-10-10T05:30:09.426Z,1011.9
2022-10-10T05:32:57.964Z,1011.9
2022-10-10T05:35:45.589Z,1011.8
2022-10-10T05:38:33.121Z,1011.7
2022-10-10T05:41:20.672Z,1011.8
2022-10-10T05:44:08.174Z,1011.7
2022-10-10T05:46:56.278Z,1011.6
2022-10-10T05:49:43.878Z,1011.5
2022-10-10T05:52:31.406Z,1011.5
2022-10-10T05:55:19.862Z,1011.5
2022-10-10T05:58:07.422Z,1011.5
2022-10-10T06:00:55.017Z,1011.5
2022-10-10T06:03:48.455Z,1011.5
2022-10-10T06:06:40.461Z,1011.5
2022-10-10T06:09:28.628Z,1011.5
2022-10-10T06:12:17.421Z,1011.5
2022-10-10T06:15:04.891Z,1011.6
2022-10-10T06:17:53.549Z,1011.4
2022-10-10T06:20:41.423Z,1011.4
2022-10-10T06:23:29.566Z,1011
2022-10-10T06:26:18.184Z,1011.4
2022-10-10T06:29:05.903Z,1011.5
2022-10-10T06:31:53.422Z,1011.4
2022-10-10T06:34:40.936Z,1011.3
2022-10-10T06:37:29.038Z,1011.3
2022-10-10T06:40:17.220Z,1011.3
2022-10-10T06:43:04.711Z,1011.3
2022-10-10T06:45:56.352Z,1011.2
2022-10-10T06:48:44.797Z,1011.2
2022-10-10T06:51:32.462Z,1011.3
2022-10-10T06:54:20.502Z,1011.2
2022-10-10T06:57:08.230Z,1011.3
2022-10-10T06:59:55.818Z,1011.3
2022-10-10T07:02:43.490Z,1011.2
2022-10-10T07:05:31.235Z,1011.1
2022-10-10T07:08:19.114Z,1011.2
2022-10-10T07:11:07.558Z,1011.1
2022-10-10T07:13:55.574Z,1011.1
2022-10-10T07:16:43.193Z,1011.1
2022-10-10T07:19:30.971Z,1011.1
2022-10-10T07:22:18.886Z,1011
2022-10-10T07:25:06.697Z,1011.1
2022-10-10T07:27:54.496Z,1011
2022-10-10T07:30:42.339Z,1010.9
2022-10-10T07:33:31.800Z,1011
2022-10-10T07:36:21.697Z,1011
2022-10-10T07:39:12.699Z,1010.9
2022-10-10T07:42:04.962Z,1011
2022-10-10T07:44:52.636Z,1011
2022-10-10T07:47:40.316Z,1010.8
2022-10-10T07:50:27.903Z,1010.8
2022-10-10T07:53:16.729Z,1010.8
2022-10-10T07:56:04.418Z,1010.8
2022-10-10T07:58:53.909Z,1010.7
2022-10-10T08:01:41.560Z,1010.7
2022-10-10T08:04:29.411Z,1010.5
2022-10-10T08:07:17.751Z,1010.6
2022-10-10T08:10:05.441Z,1010.6
2022-10-10T08:12:54.543Z,1010.6
2022-10-10T08:15:42.094Z,1010.6
2022-10-10T08:18:29.970Z,1010.5
2022-10-10T08:21:17.991Z,1010.5
2022-10-10T08:24:05.813Z,1010.5
2022-10-10T08:26:54.390Z,1010.5
2022-10-10T08:29:42.655Z,1010.4
2022-10-10T08:32:30.566Z,1010.4
2022-10-10T08:35:18.898Z,1010.3
2022-10-10T08:38:06.495Z,1010.3
2022-10-10T08:40:54.058Z,1010.3
2022-10-10T08:43:45.243Z,1010.3
2022-10-10T08:46:37.517Z,1010.3
2022-10-10T08:49:29.703Z,1010.2
2022-10-10T08:52:22.152Z,1010.3
2022-10-10T08:55:16.990Z,1010.3
2022-10-10T08:58:09.182Z,1010.2
2022-10-10T09:01:05.459Z,1010.1
2022-10-10T09:03:58.691Z,1010.1
2022-10-10T09:06:48.647Z,1010.2
2022-10-10T09:09:53.053Z,1010.2
2022-10-10T09:12:51.018Z,1010
2022-10-10T09:15:49.463Z,1010.2
2022-10-10T09:18:43.206Z,1010.1
2022-10-10T09:21:44.208Z,1010
2022-10-10T09:24:33.287Z,1010.1
2022-10-10T09:27:26.356Z,1009.9
2022-10-10T09:30:19.052Z,1009.9
2022-10-10T09:33:07.126Z,1009.9
2022-10-10T09:36:06.935Z,1009.8
2022-10-10T09:38:58.823Z,1009.7
2022-10-10T09:41:51.951Z,1009.8
2022-10-10T09:44:43.470Z,1009.8
2022-10-10T09:47:31.468Z,1009.7
2022-10-10T09:50:19.042Z,1009.7
2022-10-10T09:53:07.688Z,1009.8
2022-10-10T09:55:59.836Z,1009.7
2022-10-10T09:58:49.768Z,1009.6
2022-10-10T10:01:39.502Z,1009.6
2022-10-10T10:04:29.074Z,1009.6
2022-10-10T10:07:18.237Z,1009.6
2022-10-10T10:10:11.076Z,1009.5
2022-10-10T10:13:05.513Z,1009.4
2022-10-10T10:15:59.726Z,1009.4
2022-10-10T10:18:51.478Z,1009.4
2022-10-10T10:21:39.244Z,1009.4
2022-10-10T10:24:35.344Z,1009.3
2022-10-10T10:27:23.775Z,1009.2
2022-10-10T10:30:13.683Z,1009.3
2022-10-10T10:33:11.116Z,1009.3
2022-10-10T10:36:10.696Z,1009.2
2022-10-10T10:39:10.577Z,1009.2
2022-10-10T10:42:11.083Z,1009.1
2022-10-10T10:45:10.519Z,1009
2022-10-10T10:48:02.735Z,1009
2022-10-10T10:51:01.140Z,1008.9
2022-10-10T10:54:00.877Z,1008.9
2022-10-10T10:57:06.692Z,1008.9
2022-10-10T11:00:17.037Z,1008.9
2022-10-10T11:05:15.412Z,1008.9
2022-10-10T11:08:19.748Z,1008.8
2022-10-10T11:11:31.840Z,1008.7
2022-10-10T11:14:34.691Z,1008.8
2022-10-10T11:17:37.185Z,1008.7
2022-10-10T11:20:30.658Z,1008.6
2022-10-10T11:23:24.016Z,1008.5
2022-10-10T11:26:19.172Z,1008.5
2022-10-10T11:29:11.968Z,1008.4
2022-10-10T11:32:05.282Z,1008.4
2022-10-10T11:34:58.721Z,1008.4
2022-10-10T11:38:01.679Z,1008.3
2022-10-10T11:40:59.980Z,1008.3
2022-10-10T11:43:51.032Z,1008.3
2022-10-10T11:46:44.722Z,1008.2
2022-10-10T11:49:39.557Z,1008.3
2022-10-10T11:52:37.116Z,1008.1
2022-10-10T11:55:33.487Z,1008.1
2022-10-10T11:58:26.503Z,1008
2022-10-10T12:01:20.341Z,1008
2022-10-10T12:04:13.369Z,1007.9
2022-10-10T12:07:01.448Z,1008
2022-10-10T12:09:54.149Z,1007.9
2022-10-10T12:12:46.299Z,1007.9
2022-10-10T12:15:42.621Z,1007.9
2022-10-10T12:18:37.882Z,1007.8
2022-10-10T12:21:29.929Z,1007.8
2022-10-10T12:24:42.508Z,1007.7
2022-10-10T12:28:05.794Z,1007.8
2022-10-10T12:31:10.763Z,1007.7
2022-10-10T12:34:17.251Z,1007.9
2022-10-10T12:37:27.611Z,1007.7
2022-10-10T12:40:17.471Z,1007.7
2022-10-10T12:43:07.941Z,1007.6
2022-10-10T12:46:23.488Z,1007.7
2022-10-10T12:49:15.879Z,1007.6
2022-10-10T12:52:06.941Z,1007.6
2022-10-10T12:55:06.944Z,1007.6
2022-10-10T12:58:05.015Z,1007.5
2022-10-10T13:01:00.817Z,1007.4
2022-10-10T13:03:52.736Z,1007.4
2022-10-10T13:06:41.898Z,1007.4
2022-10-10T13:09:35.115Z,1007.3
2022-10-10T13:12:23.761Z,1007.2
2022-10-10T13:15:13.967Z,1007.2
2022-10-10T13:18:04.756Z,1007.2
2022-10-10T13:20:52.383Z,1007.2
2022-10-10T13:23:41.554Z,1007.1
2022-10-10T13:26:32.483Z,1007
2022-10-10T13:29:23.937Z,1007.1
2022-10-10T13:32:16.231Z,1007.1
2022-10-10T13:35:07.254Z,1007.1
2022-10-10T13:38:01.316Z,1007
2022-10-10T13:40:51.314Z,1007
2022-10-10T13:43:39.231Z,1007
2022-10-10T13:46:27.835Z,1006.9
2022-10-10T13:49:18.090Z,1006.9
2022-10-10T13:52:09.830Z,1006.9
2022-10-10T13:55:07.598Z,1006.9
2022-10-10T13:58:10.357Z,1006.9
2022-10-10T14:01:00.853Z,1006.8
2022-10-10T14:03:50.071Z,1006.8
2022-10-10T14:06:40.375Z,1006.8
2022-10-10T14:09:41.845Z,1006.7
2022-10-10T14:12:34.351Z,1006.7
2022-10-10T14:15:27.631Z,1006.6
2022-10-10T14:18:21.952Z,1006.7
2022-10-10T14:21:11.147Z,1006.6
2022-10-10T14:23:59.215Z,1006.5
2022-10-10T14:26:46.753Z,1006.6
2022-10-10T14:29:34.553Z,1006.5
2022-10-10T14:32:23.531Z,1006.4
2022-10-10T14:35:11.756Z,1006.5
2022-10-10T14:37:59.472Z,1006.4
2022-10-10T14:40:47.255Z,1006.4
2022-10-10T14:43:36.348Z,1006.4
2022-10-10T14:46:23.993Z,1006.3
2022-10-10T14:49:13.159Z,1006.3
2022-10-10T14:52:04.411Z,1006.3
2022-10-10T14:54:53.246Z,1006.3
2022-10-10T14:57:40.781Z,1006.3
2022-10-10T15:00:28.363Z,1006.3
2022-10-10T15:03:17.305Z,1006.3
2022-10-10T15:06:05.180Z,1006.3
2022-10-10T15:08:55.854Z,1006.3
2022-10-10T15:11:43.397Z,1006.2
2022-10-10T15:14:31.251Z,1006.2
2022-10-10T15:17:19.275Z,1006.2
2022-10-10T15:20:07.334Z,1006.1
2022-10-10T15:22:57.533Z,1006.2
2022-10-10T15:25:46.451Z,1006.1
2022-10-10T15:28:34.315Z,1006.1
2022-10-10T15:31:21.961Z,1006.1
2022-10-10T15:34:15.010Z,1006
2022-10-10T15:37:03.712Z,1006.1
2022-10-10T15:39:52.710Z,1006.1
2022-10-10T15:42:40.376Z,1006
2022-10-10T15:45:54.427Z,1006
2022-10-10T15:48:43.463Z,1005.9
2022-10-10T15:51:31.693Z,1005.9
2022-10-10T15:54:19.477Z,1005.9
2022-10-10T15:57:07.175Z,1005.9
2022-10-10T15:59:54.793Z,1005.9
2022-10-10T16:02:42.476Z,1005.9
2022-10-10T16:05:30.285Z,1005.8
2022-10-10T16:08:22.109Z,1005.9
2022-10-10T16:11:09.799Z,1005.9
2022-10-10T16:14:00.647Z,1005.8
2022-10-10T16:16:48.213Z,1005.8
2022-10-10T16:19:35.838Z,1005.8
2022-10-10T16:22:23.715Z,1005.9
2022-10-10T16:25:22.959Z,1005.9
2022-10-10T16:28:11.319Z,1005.9
2022-10-10T16:30:59.489Z,1006
2022-10-10T16:33:48.402Z,1006
2022-10-10T16:36:37.470Z,1005.9
2022-10-10T16:39:25.232Z,1005.9
2022-10-10T16:42:12.917Z,1005.8
2022-10-10T16:45:00.596Z,1005.9
2022-10-10T16:47:48.804Z,1005.9
2022-10-10T16:50:36.721Z,1005.9
2022-10-10T16:53:25.316Z,1005.9
2022-10-10T16:56:12.995Z,1005.9
2022-10-10T16:59:03.750Z,1005.9
2022-10-10T17:01:51.591Z,1005.9
2022-10-10T17:04:39.258Z,1005.9
2022-10-10T17:07:26.876Z,1006
2022-10-10T17:10:15.102Z,1005.9
2022-10-10T17:13:02.928Z,1005.9
2022-10-10T17:15:50.888Z,1005.8
2022-10-10T17:18:38.725Z,1005.9
2022-10-10T17:21:26.418Z,1005.9
2022-10-10T17:24:14.456Z,1005.9
2022-10-10T17:27:02.468Z,1005.8
2022-10-10T17:29:50.175Z,1005.9
2022-10-10T17:32:37.986Z,1005.9
2022-10-10T17:35:26.962Z,1005.8
2022-10-10T17:38:34.971Z,1005.8
2022-10-10T17:41:27.474Z,1005.8
2022-10-10T17:44:17.899Z,1005.8
2022-10-10T17:47:06.058Z,1005.7
2022-10-10T17:49:53.785Z,1005.7
2022-10-10T17:52:41.430Z,1005.8
2022-10-10T17:55:29.940Z,1005.8
2022-10-10T17:58:18.415Z,1005.8
2022-10-10T18:01:06.201Z,1005.8
2022-10-10T18:03:54.231Z,1005.7
2022-10-10T18:06:41.872Z,1005.7
2022-10-10T18:09:29.733Z,1005.7
2022-10-10T18:12:18.373Z,1005.8
2022-10-10T18:15:06.087Z,1005.8
2022-10-10T18:17:54.381Z,1005.7
2022-10-10T18:20:42.209Z,1005.8
2022-10-10T18:23:31.130Z,1005.8
2022-10-10T18:26:19.476Z,1005.8
2022-10-10T18:29:10.171Z,1005.7
2022-10-10T18:31:59.158Z,1005.8
2022-10-10T18:34:46.860Z,1005.7
2022-10-10T18:37:34.441Z,1005.7
2022-10-10T18:40:23.092Z,1005.7
2022-10-10T18:43:10.590Z,1005.7
2022-10-10T18:45:58.306Z,1005.7
2022-10-10T18:48:49.017Z,1005.7
2022-10-10T18:51:40.596Z,1005.7
2022-10-10T18:54:29.164Z,1005.7
2022-10-10T18:57:20.362Z,1005.7
2022-10-10T19:00:07.938Z,1005.8
2022-10-10T19:02:56.858Z,1005.8
2022-10-10T19:05:44.353Z,1005.8
2022-10-10T19:08:32.362Z,1005.8
2022-10-10T19:11:20.287Z,1005.8
2022-10-10T19:14:10.584Z,1005.8
2022-10-10T19:17:00.707Z,1005.8
2022-10-10T19:19:48.656Z,1005.8
2022-10-10T19:22:37.284Z,1005.8
2022-10-10T19:25:24.988Z,1005.7
2022-10-10T19:28:14.724Z,1005.7
2022-10-10T19:31:03.283Z,1005.7
2022-10-10T19:33:52.753Z,1005.7
2022-10-10T19:36:42.314Z,1005.8
2022-10-10T19:39:30.388Z,1005.8
2022-10-10T19:42:18.780Z,1005.8
2022-10-10T19:45:06.389Z,1005.9
2022-10-10T19:47:55.001Z,1005.8
2022-10-10T19:50:43.670Z,1005.8
2022-10-10T19:53:38.249Z,1005.9
2022-10-10T19:56:27.826Z,1005.8
2022-10-10T19:59:16.670Z,1005.9
2022-10-10T20:02:04.371Z,1005.8
2022-10-10T20:04:52.507Z,1005.9
2022-10-10T20:07:40.023Z,1006
2022-10-10T20:10:27.580Z,1006
2022-10-10T20:13:15.831Z,1006
2022-10-10T20:16:03.817Z,1005.9
2022-10-10T20:18:54.967Z,1005.9
2022-10-10T20:21:43.938Z,1005.9
2022-10-10T20:24:31.711Z,1006
2022-10-10T20:27:20.002Z,1006
2022-10-10T20:30:07.719Z,1006.1
2022-10-10T20:32:56.372Z,1006
2022-10-10T20:35:44.499Z,1006
2022-10-10T20:38:33.799Z,1006
2022-10-10T20:41:21.775Z,1006.1
2022-10-10T20:44:11.354Z,1006.1
2022-10-10T20:47:00.288Z,1006.1
2022-10-10T20:49:48.066Z,1006.1
2022-10-10T20:52:35.978Z,1006.1
2022-10-10T20:55:23.545Z,1006.1
2022-10-10T20:58:11.270Z,1006.1
2022-10-10T21:00:59.093Z,1006.1
2022-10-10T21:03:51.378Z,1006.1
2022-10-10T21:06:39.405Z,1006.1
2022-10-10T21:09:27.590Z,1006.1
2022-10-10T21:12:16.989Z,1006.2
2022-10-10T21:15:05.282Z,1006.1
2022-10-10T21:17:53.471Z,1006.1
2022-10-10T21:20:41.585Z,1006.1
2022-10-10T21:23:29.294Z,1006.1
2022-10-10T21:26:21.354Z,1006.1
2022-10-10T21:29:11.039Z,1006.1
2022-10-10T21:31:58.683Z,1006.1
2022-10-10T21:34:46.254Z,1006.2
2022-10-10T21:37:33.940Z,1006.2
2022-10-10T21:40:21.722Z,1006.1
2022-10-10T21:43:09.298Z,1006.1
2022-10-10T21:45:57.353Z,1006.1
2022-10-10T21:48:48.464Z,1006.2
2022-10-10T21:51:36.963Z,1006.2
2022-10-10T21:54:26.673Z,1006.2
2022-10-10T21:57:14.340Z,1006.2
2022-10-10T22:00:02.253Z,1006.2
2022-10-10T22:02:53.178Z,1006.3
2022-10-10T22:05:40.688Z,1006.3
2022-10-10T22:08:29.754Z,1006.3
2022-10-10T22:11:18.456Z,1006.3
2022-10-10T22:14:09.121Z,1006.4
2022-10-10T22:16:56.648Z,1006.3
2022-10-10T22:19:44.511Z,1006.4
2022-10-10T22:22:32.349Z,1006.4
2022-10-10T22:25:21.494Z,1006.3
2022-10-10T22:28:09.063Z,1006.4
2022-10-10T22:30:57.242Z,1006.4
2022-10-10T22:33:49.171Z,1006.4
2022-10-10T22:36:36.780Z,1006.4
2022-10-10T22:39:24.413Z,1006.4
2022-10-10T22:42:13.006Z,1006.3
2022-10-10T22:45:00.606Z,1006.4
2022-10-10T22:47:48.631Z,1006.4
2022-10-10T22:50:36.425Z,1006.4
2022-10-10T22:53:23.976Z,1006.6
2022-10-10T22:56:11.704Z,1006.5
2022-10-10T22:59:03.895Z,1006.5
2022-10-10T23:01:51.610Z,1006.5
2022-10-10T23:04:40.069Z,1006.4
2022-10-10T23:07:27.690Z,1006.5
2022-10-10T23:10:15.687Z,1006.5
2022-10-10T23:13:03.532Z,1006.6
2022-10-10T23:15:51.333Z,1006.5
2022-10-10T23:18:39.137Z,1006.5
2022-10-10T23:21:26.807Z,1006.6
2022-10-10T23:24:14.431Z,1006.6
2022-10-10T23:27:02.071Z,1006.7
2022-10-10T23:29:49.683Z,1006.7
2022-10-10T23:32:37.308Z,1006.7
2022-10-10T23:35:25.387Z,1006.8
2022-10-10T23:38:12.999Z,1006.8
2022-10-10T23:41:00.595Z,1006.7
2022-10-10T23:43:49.072Z,1006.8
2022-10-10T23:46:36.615Z,1006.8
2022-10-10T23:49:24.139Z,1006.7
2022-10-10T23:52:11.800Z,1006.8
2022-10-10T23:54:59.347Z,1006.8
2022-10-10T23:57:46.963Z,1006.8
